LHA39C EKCH-EDDP
Flight info
| Callsign | LHA39C |
|---|---|
| Flight time | 0h 50m |
| Altitude | 33000 |
| Route | SALLO M736 BAKDO/N0405F290 M736 INDOK/N0443F370 M736 MAG Z20 KENIG T959 KOJEC |
| Aircraft | A319/M-SDE3FGHIRWY/LB1 |
Departure
| Time | 2026-05-06 18:14 |
|---|---|
| Airport | Copenhagen Kastrup Airport (EKCH) |
Arrival
| Time | 2026-05-06 19:05 |
|---|---|
| Airport | Leipzig/Halle Airport (EDDP) |
| Time | Latitude | Longitude | Altitude | Speed | Heading |
|---|---|---|---|---|---|
| 2026-05-06 17:45 | 55.62855 | 12.64282 | 19 ft | 0 kts | 95° |
| 2026-05-06 17:59 | 55.62856 | 12.64252 | 19 ft | 4 kts | 93° |
| 2026-05-06 17:59 | 55.62857 | 12.64204 | 19 ft | 4 kts | 89° |
| 2026-05-06 17:59 | 55.62857 | 12.64156 | 19 ft | 4 kts | 86° |
| 2026-05-06 17:59 | 55.62855 | 12.64109 | 19 ft | 4 kts | 84° |
| 2026-05-06 18:00 | 55.62851 | 12.64061 | 21 ft | 4 kts | 82° |
| 2026-05-06 18:00 | 55.62847 | 12.64014 | 23 ft | 4 kts | 79° |
| 2026-05-06 18:00 | 55.62842 | 12.63967 | 21 ft | 4 kts | 78° |
| 2026-05-06 18:00 | 55.62837 | 12.63920 | 21 ft | 4 kts | 83° |
| 2026-05-06 18:01 | 55.62836 | 12.63887 | 24 ft | 0 kts | 105° |
| 2026-05-06 18:05 | 55.62833 | 12.63904 | 24 ft | 3 kts | 110° |
| 2026-05-06 18:05 | 55.62811 | 12.63937 | 21 ft | 7 kts | 151° |
| 2026-05-06 18:05 | 55.62750 | 12.63940 | 20 ft | 10 kts | 210° |
| 2026-05-06 18:06 | 55.62704 | 12.63877 | 22 ft | 8 kts | 216° |
| 2026-05-06 18:06 | 55.62658 | 12.63833 | 24 ft | 5 kts | 169° |
| 2026-05-06 18:06 | 55.62631 | 12.63910 | 24 ft | 11 kts | 122° |
| 2026-05-06 18:06 | 55.62573 | 12.64071 | 22 ft | 18 kts | 124° |
| 2026-05-06 18:07 | 55.62500 | 12.64264 | 21 ft | 20 kts | 124° |
| 2026-05-06 18:07 | 55.62417 | 12.64446 | 19 ft | 14 kts | 149° |
| 2026-05-06 18:07 | 55.62333 | 12.64443 | 20 ft | 10 kts | 156° |
| 2026-05-06 18:07 | 55.62336 | 12.64546 | 19 ft | 8 kts | 91° |
| 2026-05-06 18:08 | 55.62328 | 12.64650 | 20 ft | 12 kts | 101° |
| 2026-05-06 18:08 | 55.62283 | 12.64779 | 23 ft | 13 kts | 146° |
| 2026-05-06 18:08 | 55.62176 | 12.64732 | 22 ft | 19 kts | 212° |
| 2026-05-06 18:08 | 55.62059 | 12.64596 | 20 ft | 22 kts | 213° |
| 2026-05-06 18:09 | 55.61925 | 12.64501 | 22 ft | 20 kts | 179° |
| 2026-05-06 18:09 | 55.61788 | 12.64544 | 23 ft | 20 kts | 169° |
| 2026-05-06 18:09 | 55.61651 | 12.64534 | 23 ft | 20 kts | 208° |
| 2026-05-06 18:09 | 55.61566 | 12.64446 | 25 ft | 22 kts | 211° |
| 2026-05-06 18:10 | 55.61435 | 12.64297 | 22 ft | 23 kts | 213° |
| 2026-05-06 18:10 | 55.61295 | 12.64130 | 19 ft | 25 kts | 214° |
| 2026-05-06 18:10 | 55.61150 | 12.63958 | 20 ft | 25 kts | 213° |
| 2026-05-06 18:10 | 55.61005 | 12.63793 | 21 ft | 24 kts | 212° |
| 2026-05-06 18:11 | 55.60868 | 12.63635 | 22 ft | 23 kts | 213° |
| 2026-05-06 18:11 | 55.60765 | 12.63638 | 22 ft | 13 kts | 142° |
| 2026-05-06 18:11 | 55.60725 | 12.63718 | 22 ft | 0 kts | 123° |
| 2026-05-06 18:11 | 55.60725 | 12.63719 | 22 ft | 0 kts | 123° |
| 2026-05-06 18:12 | 55.60713 | 12.63751 | 24 ft | 7 kts | 123° |
| 2026-05-06 18:12 | 55.60679 | 12.63853 | 25 ft | 8 kts | 103° |
| 2026-05-06 18:12 | 55.60697 | 12.63907 | 25 ft | 0 kts | 39° |
| 2026-05-06 18:12 | 55.60701 | 12.63912 | 25 ft | 0 kts | 39° |
| 2026-05-06 18:13 | 55.60702 | 12.63914 | 25 ft | 0 kts | 39° |
| 2026-05-06 18:14 | 55.60737 | 12.63966 | 24 ft | 30 kts | 40° |
| 2026-05-06 18:14 | 55.61121 | 12.64567 | 20 ft | 113 kts | 41° |
| 2026-05-06 18:14 | 55.61873 | 12.65738 | 150 ft | 162 kts | 45° |
| 2026-05-06 18:14 | 55.62736 | 12.67029 | 909 ft | 164 kts | 42° |
| 2026-05-06 18:15 | 55.63638 | 12.68376 | 1558 ft | 181 kts | 44° |
| 2026-05-06 18:15 | 55.64661 | 12.69970 | 2011 ft | 208 kts | 44° |
| 2026-05-06 18:15 | 55.65804 | 12.71814 | 2567 ft | 236 kts | 44° |
| 2026-05-06 18:15 | 55.67102 | 12.73791 | 3392 ft | 251 kts | 43° |
| 2026-05-06 18:16 | 55.68428 | 12.75852 | 4483 ft | 255 kts | 48° |
| 2026-05-06 18:16 | 55.69369 | 12.78509 | 5546 ft | 259 kts | 69° |
| 2026-05-06 18:16 | 55.69663 | 12.81667 | 6598 ft | 265 kts | 91° |
| 2026-05-06 18:16 | 55.69225 | 12.84875 | 7558 ft | 274 kts | 115° |
| 2026-05-06 18:17 | 55.68024 | 12.87547 | 8492 ft | 284 kts | 142° |
| 2026-05-06 18:17 | 55.66248 | 12.89136 | 9478 ft | 289 kts | 160° |
| 2026-05-06 18:17 | 55.64344 | 12.90417 | 10321 ft | 300 kts | 160° |
| 2026-05-06 18:17 | 55.62316 | 12.91763 | 10715 ft | 323 kts | 161° |
| 2026-05-06 18:18 | 55.60130 | 12.93212 | 11034 ft | 347 kts | 160° |
| 2026-05-06 18:18 | 55.57805 | 12.94763 | 11475 ft | 364 kts | 160° |
| 2026-05-06 18:18 | 55.55414 | 12.96367 | 12209 ft | 371 kts | 161° |
| 2026-05-06 18:18 | 55.54631 | 12.96894 | 12473 ft | 372 kts | 160° |
| 2026-05-06 18:19 | 55.53248 | 12.97831 | 12954 ft | 374 kts | 160° |
| 2026-05-06 18:19 | 55.50807 | 12.99501 | 13740 ft | 379 kts | 160° |
| 2026-05-06 18:19 | 55.48327 | 13.01180 | 14435 ft | 383 kts | 161° |
| 2026-05-06 18:19 | 55.45824 | 13.02862 | 15152 ft | 387 kts | 161° |
| 2026-05-06 18:20 | 55.43299 | 13.04548 | 15870 ft | 390 kts | 161° |
| 2026-05-06 18:20 | 55.40745 | 13.06248 | 16593 ft | 394 kts | 161° |
| 2026-05-06 18:20 | 55.38178 | 13.07957 | 17307 ft | 397 kts | 161° |
| 2026-05-06 18:20 | 55.35580 | 13.09685 | 18020 ft | 400 kts | 161° |
| 2026-05-06 18:21 | 55.32968 | 13.11421 | 18657 ft | 404 kts | 161° |
| 2026-05-06 18:21 | 55.30327 | 13.13174 | 19239 ft | 407 kts | 162° |
| 2026-05-06 18:21 | 55.27666 | 13.14945 | 19802 ft | 411 kts | 162° |
| 2026-05-06 18:21 | 55.24986 | 13.16721 | 20352 ft | 414 kts | 162° |
| 2026-05-06 18:22 | 55.22274 | 13.18511 | 20889 ft | 418 kts | 162° |
| 2026-05-06 18:22 | 55.19542 | 13.20313 | 21422 ft | 421 kts | 162° |
| 2026-05-06 18:22 | 55.16783 | 13.22130 | 21945 ft | 425 kts | 162° |
| 2026-05-06 18:22 | 55.14005 | 13.23962 | 22458 ft | 428 kts | 162° |
| 2026-05-06 18:23 | 55.11209 | 13.25801 | 22957 ft | 431 kts | 162° |
| 2026-05-06 18:23 | 55.08397 | 13.27648 | 23447 ft | 434 kts | 162° |
| 2026-05-06 18:23 | 55.05555 | 13.29520 | 23879 ft | 437 kts | 162° |
| 2026-05-06 18:23 | 55.02697 | 13.31398 | 24341 ft | 439 kts | 162° |
| 2026-05-06 18:24 | 54.99837 | 13.33270 | 24767 ft | 440 kts | 162° |
| 2026-05-06 18:24 | 54.96962 | 13.35124 | 24908 ft | 439 kts | 164° |
| 2026-05-06 18:24 | 54.94011 | 13.36387 | 24960 ft | 436 kts | 174° |
| 2026-05-06 18:24 | 54.91003 | 13.36767 | 24955 ft | 432 kts | 183° |
| 2026-05-06 18:25 | 54.88024 | 13.36287 | 24956 ft | 429 kts | 192° |
| 2026-05-06 18:25 | 54.85125 | 13.34997 | 25278 ft | 431 kts | 199° |
| 2026-05-06 18:25 | 54.82278 | 13.33363 | 25720 ft | 432 kts | 201° |
| 2026-05-06 18:25 | 54.79449 | 13.31574 | 26140 ft | 434 kts | 202° |
| 2026-05-06 18:26 | 54.76665 | 13.29734 | 26533 ft | 435 kts | 202° |
| 2026-05-06 18:26 | 54.73830 | 13.27841 | 26935 ft | 437 kts | 202° |
| 2026-05-06 18:26 | 54.70951 | 13.25941 | 27327 ft | 439 kts | 201° |
| 2026-05-06 18:26 | 54.68118 | 13.24109 | 27713 ft | 441 kts | 201° |
| 2026-05-06 18:27 | 54.65230 | 13.22285 | 28081 ft | 443 kts | 200° |
| 2026-05-06 18:27 | 54.62332 | 13.20472 | 28441 ft | 445 kts | 200° |
| 2026-05-06 18:27 | 54.59418 | 13.18657 | 28793 ft | 446 kts | 200° |
| 2026-05-06 18:27 | 54.56503 | 13.16838 | 29293 ft | 445 kts | 200° |
| 2026-05-06 18:28 | 54.53601 | 13.15030 | 29847 ft | 443 kts | 199° |
| 2026-05-06 18:28 | 54.50710 | 13.13228 | 30330 ft | 441 kts | 200° |
| 2026-05-06 18:28 | 54.47832 | 13.11433 | 30797 ft | 439 kts | 200° |
| 2026-05-06 18:28 | 54.44971 | 13.09652 | 31254 ft | 437 kts | 200° |
| 2026-05-06 18:29 | 54.42116 | 13.07879 | 31731 ft | 435 kts | 200° |
| 2026-05-06 18:29 | 54.39282 | 13.06115 | 32194 ft | 433 kts | 201° |
| 2026-05-06 18:29 | 54.36449 | 13.04350 | 32663 ft | 431 kts | 201° |
| 2026-05-06 18:29 | 54.33633 | 13.02598 | 32895 ft | 430 kts | 201° |
| 2026-05-06 18:30 | 54.28017 | 12.99127 | 32929 ft | 428 kts | 201° |
| 2026-05-06 18:30 | 54.22408 | 12.95687 | 32921 ft | 428 kts | 201° |
| 2026-05-06 18:31 | 54.16806 | 12.92246 | 32916 ft | 428 kts | 201° |
| 2026-05-06 18:31 | 54.11210 | 12.88811 | 32912 ft | 428 kts | 201° |
| 2026-05-06 18:32 | 54.05605 | 12.85393 | 32905 ft | 427 kts | 201° |
| 2026-05-06 18:32 | 54.00011 | 12.81992 | 32907 ft | 427 kts | 201° |
| 2026-05-06 18:33 | 53.94411 | 12.78583 | 32895 ft | 427 kts | 201° |
| 2026-05-06 18:33 | 53.88853 | 12.75216 | 32893 ft | 427 kts | 201° |
| 2026-05-06 18:34 | 53.83254 | 12.71836 | 32896 ft | 427 kts | 201° |
| 2026-05-06 18:34 | 53.77615 | 12.68448 | 32895 ft | 427 kts | 201° |
| 2026-05-06 18:35 | 53.72049 | 12.65099 | 32890 ft | 427 kts | 201° |
| 2026-05-06 18:35 | 53.66341 | 12.61664 | 32885 ft | 427 kts | 201° |
| 2026-05-06 18:36 | 53.60855 | 12.58393 | 32877 ft | 427 kts | 201° |
| 2026-05-06 18:36 | 53.55259 | 12.55075 | 32875 ft | 427 kts | 201° |
| 2026-05-06 18:37 | 53.50563 | 12.52287 | 32873 ft | 427 kts | 201° |
| 2026-05-06 18:37 | 53.46848 | 12.50086 | 32383 ft | 427 kts | 201° |
| 2026-05-06 18:37 | 53.44052 | 12.48430 | 31863 ft | 426 kts | 201° |
| 2026-05-06 18:38 | 53.41257 | 12.46777 | 31335 ft | 425 kts | 201° |
| 2026-05-06 18:38 | 53.38470 | 12.45130 | 30830 ft | 424 kts | 201° |
| 2026-05-06 18:38 | 53.35690 | 12.43490 | 30332 ft | 423 kts | 201° |
| 2026-05-06 18:38 | 53.32912 | 12.41852 | 29821 ft | 422 kts | 201° |
| 2026-05-06 18:39 | 53.30140 | 12.40218 | 29243 ft | 423 kts | 201° |
| 2026-05-06 18:39 | 53.27363 | 12.38585 | 28678 ft | 424 kts | 201° |
| 2026-05-06 18:39 | 53.24571 | 12.36953 | 28121 ft | 426 kts | 201° |
| 2026-05-06 18:40 | 53.18944 | 12.33674 | 27044 ft | 430 kts | 201° |
| 2026-05-06 18:40 | 53.16107 | 12.32021 | 26513 ft | 433 kts | 201° |
| 2026-05-06 18:40 | 53.13256 | 12.30358 | 26002 ft | 435 kts | 201° |
| 2026-05-06 18:40 | 53.10393 | 12.28693 | 25491 ft | 437 kts | 201° |
| 2026-05-06 18:41 | 53.07514 | 12.27020 | 24990 ft | 440 kts | 201° |
| 2026-05-06 18:41 | 53.04619 | 12.25336 | 24505 ft | 442 kts | 201° |
| 2026-05-06 18:41 | 53.01710 | 12.23644 | 24086 ft | 444 kts | 201° |
| 2026-05-06 18:41 | 52.98788 | 12.21947 | 23873 ft | 446 kts | 201° |
| 2026-05-06 18:42 | 52.95854 | 12.20253 | 23840 ft | 447 kts | 201° |
| 2026-05-06 18:42 | 52.92914 | 12.18563 | 23856 ft | 447 kts | 201° |
| 2026-05-06 18:42 | 52.89977 | 12.16876 | 23852 ft | 447 kts | 201° |
| 2026-05-06 18:42 | 52.87035 | 12.15189 | 23850 ft | 447 kts | 201° |
| 2026-05-06 18:43 | 52.84092 | 12.13501 | 23848 ft | 447 kts | 201° |
| 2026-05-06 18:43 | 52.81152 | 12.11810 | 23847 ft | 447 kts | 201° |
| 2026-05-06 18:43 | 52.78219 | 12.10122 | 23848 ft | 447 kts | 201° |
| 2026-05-06 18:43 | 52.75276 | 12.08434 | 23844 ft | 447 kts | 201° |
| 2026-05-06 18:44 | 52.72331 | 12.06750 | 23846 ft | 448 kts | 201° |
| 2026-05-06 18:44 | 52.69387 | 12.05073 | 23841 ft | 448 kts | 201° |
| 2026-05-06 18:44 | 52.66447 | 12.03402 | 23851 ft | 448 kts | 201° |
| 2026-05-06 18:44 | 52.63506 | 12.01729 | 23677 ft | 447 kts | 201° |
| 2026-05-06 18:45 | 52.60566 | 12.00061 | 23443 ft | 446 kts | 201° |
| 2026-05-06 18:45 | 52.57640 | 11.98404 | 23169 ft | 444 kts | 201° |
| 2026-05-06 18:45 | 52.54721 | 11.96752 | 22888 ft | 443 kts | 201° |
| 2026-05-06 18:45 | 52.52790 | 11.95660 | 22701 ft | 442 kts | 201° |
| 2026-05-06 18:46 | 52.48947 | 11.93495 | 22338 ft | 440 kts | 201° |
| 2026-05-06 18:46 | 52.46051 | 11.91867 | 22064 ft | 439 kts | 201° |
| 2026-05-06 18:46 | 52.43131 | 11.90224 | 21793 ft | 437 kts | 201° |
| 2026-05-06 18:46 | 52.40294 | 11.88625 | 21530 ft | 436 kts | 201° |
| 2026-05-06 18:47 | 52.37395 | 11.86992 | 21261 ft | 435 kts | 201° |
| 2026-05-06 18:47 | 52.34538 | 11.85390 | 21000 ft | 434 kts | 201° |
| 2026-05-06 18:47 | 52.31686 | 11.83795 | 20740 ft | 432 kts | 201° |
| 2026-05-06 18:47 | 52.28881 | 11.82227 | 20486 ft | 431 kts | 200° |
| 2026-05-06 18:48 | 52.26009 | 11.80627 | 20222 ft | 430 kts | 200° |
| 2026-05-06 18:48 | 52.23181 | 11.79051 | 19968 ft | 429 kts | 200° |
| 2026-05-06 18:48 | 52.20497 | 11.77556 | 19731 ft | 428 kts | 200° |
| 2026-05-06 18:48 | 52.17685 | 11.75991 | 19480 ft | 427 kts | 200° |
| 2026-05-06 18:49 | 52.14910 | 11.74448 | 19235 ft | 426 kts | 200° |
| 2026-05-06 18:49 | 52.12074 | 11.72872 | 18979 ft | 425 kts | 200° |
| 2026-05-06 18:49 | 52.09285 | 11.71325 | 18745 ft | 424 kts | 200° |
| 2026-05-06 18:49 | 52.06491 | 11.69772 | 18503 ft | 423 kts | 200° |
| 2026-05-06 18:50 | 52.03716 | 11.68236 | 18265 ft | 422 kts | 200° |
| 2026-05-06 18:50 | 52.00979 | 11.66722 | 17603 ft | 418 kts | 200° |
| 2026-05-06 18:50 | 51.98241 | 11.65211 | 16752 ft | 413 kts | 200° |
| 2026-05-06 18:50 | 51.95537 | 11.63727 | 15977 ft | 407 kts | 200° |
| 2026-05-06 18:51 | 51.92831 | 11.62247 | 15287 ft | 402 kts | 200° |
| 2026-05-06 18:51 | 51.90240 | 11.60832 | 15124 ft | 385 kts | 200° |
| 2026-05-06 18:51 | 51.87753 | 11.59476 | 14973 ft | 369 kts | 200° |
| 2026-05-06 18:51 | 51.85383 | 11.58130 | 14843 ft | 352 kts | 204° |
| 2026-05-06 18:52 | 51.83311 | 11.56300 | 14716 ft | 327 kts | 216° |
| 2026-05-06 18:52 | 51.82157 | 11.54833 | 14633 ft | 311 kts | 222° |
| 2026-05-06 18:52 | 51.80586 | 11.52576 | 14373 ft | 296 kts | 221° |
| 2026-05-06 18:52 | 51.78563 | 11.49708 | 13689 ft | 290 kts | 221° |
| 2026-05-06 18:53 | 51.77048 | 11.47581 | 13096 ft | 287 kts | 221° |
| 2026-05-06 18:53 | 51.75543 | 11.45472 | 12479 ft | 285 kts | 221° |
| 2026-05-06 18:53 | 51.74052 | 11.43381 | 11864 ft | 283 kts | 221° |
| 2026-05-06 18:53 | 51.72573 | 11.41309 | 11288 ft | 280 kts | 221° |
| 2026-05-06 18:54 | 51.71581 | 11.39923 | 10891 ft | 279 kts | 221° |
| 2026-05-06 18:54 | 51.70115 | 11.37874 | 10408 ft | 279 kts | 221° |
| 2026-05-06 18:54 | 51.68596 | 11.35947 | 10047 ft | 277 kts | 209° |
| 2026-05-06 18:54 | 51.66755 | 11.35121 | 9698 ft | 278 kts | 182° |
| 2026-05-06 18:55 | 51.64868 | 11.35764 | 9298 ft | 281 kts | 156° |
| 2026-05-06 18:55 | 51.63357 | 11.37749 | 8889 ft | 285 kts | 128° |
| 2026-05-06 18:55 | 51.62417 | 11.40565 | 8450 ft | 287 kts | 115° |
| 2026-05-06 18:55 | 51.61622 | 11.43506 | 8027 ft | 286 kts | 115° |
| 2026-05-06 18:56 | 51.60843 | 11.46442 | 7612 ft | 285 kts | 115° |
| 2026-05-06 18:56 | 51.59955 | 11.49267 | 7233 ft | 281 kts | 128° |
| 2026-05-06 18:56 | 51.58687 | 11.51637 | 6854 ft | 279 kts | 134° |
| 2026-05-06 18:56 | 51.57402 | 11.53953 | 6463 ft | 277 kts | 134° |
| 2026-05-06 18:57 | 51.56121 | 11.56267 | 6049 ft | 276 kts | 134° |
| 2026-05-06 18:57 | 51.54846 | 11.58558 | 5640 ft | 275 kts | 134° |
| 2026-05-06 18:57 | 51.53571 | 11.60836 | 5197 ft | 273 kts | 134° |
| 2026-05-06 18:57 | 51.52300 | 11.63097 | 4773 ft | 272 kts | 134° |
| 2026-05-06 18:58 | 51.51034 | 11.65335 | 4348 ft | 270 kts | 134° |
| 2026-05-06 18:58 | 51.49837 | 11.67631 | 4017 ft | 267 kts | 122° |
| 2026-05-06 18:58 | 51.49014 | 11.70257 | 3748 ft | 266 kts | 115° |
| 2026-05-06 18:58 | 51.48305 | 11.72744 | 3490 ft | 263 kts | 115° |
| 2026-05-06 18:59 | 51.47548 | 11.75395 | 3216 ft | 260 kts | 115° |
| 2026-05-06 18:59 | 51.46828 | 11.77885 | 3048 ft | 257 kts | 115° |
| 2026-05-06 18:59 | 51.46122 | 11.80303 | 3012 ft | 256 kts | 115° |
| 2026-05-06 18:59 | 51.45367 | 11.82889 | 3031 ft | 256 kts | 115° |
| 2026-05-06 19:00 | 51.44617 | 11.85475 | 3028 ft | 256 kts | 115° |
| 2026-05-06 19:00 | 51.43868 | 11.88065 | 3022 ft | 257 kts | 115° |
| 2026-05-06 19:00 | 51.43128 | 11.90629 | 3023 ft | 245 kts | 115° |
| 2026-05-06 19:00 | 51.42442 | 11.93013 | 3028 ft | 227 kts | 115° |
| 2026-05-06 19:01 | 51.41953 | 11.95021 | 3023 ft | 213 kts | 101° |
| 2026-05-06 19:01 | 51.41945 | 11.97294 | 3031 ft | 198 kts | 86° |
| 2026-05-06 19:01 | 51.42053 | 11.99438 | 3019 ft | 190 kts | 86° |
| 2026-05-06 19:01 | 51.42157 | 12.01528 | 2900 ft | 186 kts | 86° |
| 2026-05-06 19:02 | 51.42259 | 12.03584 | 2684 ft | 184 kts | 86° |
| 2026-05-06 19:02 | 51.42358 | 12.05621 | 2448 ft | 183 kts | 86° |
| 2026-05-06 19:02 | 51.42456 | 12.07630 | 2233 ft | 179 kts | 86° |
| 2026-05-06 19:02 | 51.42550 | 12.09593 | 1954 ft | 172 kts | 85° |
| 2026-05-06 19:03 | 51.42638 | 12.11415 | 1744 ft | 156 kts | 85° |
| 2026-05-06 19:03 | 51.42718 | 12.13078 | 1541 ft | 144 kts | 85° |
| 2026-05-06 19:03 | 51.42792 | 12.14634 | 1331 ft | 136 kts | 85° |
| 2026-05-06 19:03 | 51.42863 | 12.16103 | 1120 ft | 130 kts | 83° |
| 2026-05-06 19:04 | 51.42935 | 12.17523 | 963 ft | 129 kts | 83° |
| 2026-05-06 19:04 | 51.42998 | 12.18953 | 798 ft | 128 kts | 84° |
| 2026-05-06 19:04 | 51.43071 | 12.20381 | 632 ft | 129 kts | 84° |
| 2026-05-06 19:04 | 51.43134 | 12.21798 | 457 ft | 127 kts | 83° |
| 2026-05-06 19:05 | 51.43198 | 12.23079 | 439 ft | 97 kts | 86° |
| 2026-05-06 19:05 | 51.43228 | 12.23825 | 442 ft | 46 kts | 85° |
| 2026-05-06 19:05 | 51.43224 | 12.24127 | 439 ft | 20 kts | 125° |
| 2026-05-06 19:05 | 51.43099 | 12.24179 | 442 ft | 19 kts | 179° |
| 2026-05-06 19:06 | 51.42976 | 12.24187 | 437 ft | 14 kts | 175° |
| 2026-05-06 19:06 | 51.42944 | 12.24293 | 443 ft | 12 kts | 92° |
| 2026-05-06 19:06 | 51.42947 | 12.24443 | 439 ft | 15 kts | 86° |
| 2026-05-06 19:06 | 51.42957 | 12.24631 | 444 ft | 19 kts | 84° |
| 2026-05-06 19:07 | 51.42968 | 12.24851 | 446 ft | 20 kts | 85° |
| 2026-05-06 19:07 | 51.42951 | 12.25051 | 447 ft | 19 kts | 145° |
| 2026-05-06 19:07 | 51.42818 | 12.25044 | 452 ft | 23 kts | 193° |
| 2026-05-06 19:07 | 51.42644 | 12.24979 | 463 ft | 27 kts | 191° |
| 2026-05-06 19:08 | 51.42460 | 12.24915 | 474 ft | 27 kts | 194° |
| 2026-05-06 19:08 | 51.42283 | 12.24844 | 480 ft | 23 kts | 194° |
| 2026-05-06 19:08 | 51.42142 | 12.24785 | 488 ft | 20 kts | 194° |
| 2026-05-06 19:08 | 51.42003 | 12.24727 | 486 ft | 21 kts | 194° |
| 2026-05-06 19:09 | 51.41852 | 12.24672 | 484 ft | 25 kts | 192° |
| 2026-05-06 19:09 | 51.41700 | 12.24611 | 479 ft | 20 kts | 200° |
| 2026-05-06 19:09 | 51.41650 | 12.24427 | 473 ft | 20 kts | 266° |
| 2026-05-06 19:09 | 51.41640 | 12.24209 | 479 ft | 19 kts | 266° |
| 2026-05-06 19:10 | 51.41632 | 12.23992 | 474 ft | 21 kts | 267° |
| 2026-05-06 19:10 | 51.41623 | 12.23762 | 472 ft | 20 kts | 266° |
| 2026-05-06 19:10 | 51.41616 | 12.23537 | 468 ft | 21 kts | 267° |
| 2026-05-06 19:10 | 51.41604 | 12.23316 | 465 ft | 19 kts | 264° |
| 2026-05-06 19:11 | 51.41623 | 12.23109 | 461 ft | 19 kts | 285° |
| 2026-05-06 19:11 | 51.41663 | 12.22896 | 456 ft | 21 kts | 285° |
| 2026-05-06 19:11 | 51.41701 | 12.22660 | 448 ft | 23 kts | 284° |
| 2026-05-06 19:11 | 51.41741 | 12.22407 | 431 ft | 25 kts | 285° |
| 2026-05-06 19:12 | 51.41786 | 12.22145 | 432 ft | 23 kts | 286° |
| 2026-05-06 19:12 | 51.41820 | 12.21966 | 436 ft | 12 kts | 286° |
| 2026-05-06 19:12 | 51.41850 | 12.21854 | 434 ft | 9 kts | 329° |
| 2026-05-06 19:12 | 51.41904 | 12.21865 | 436 ft | 7 kts | 15° |
| 2026-05-06 19:13 | 51.41930 | 12.21878 | 428 ft | 0 kts | 17° |